Latest Weather Observations for East Trentham (CFA)

IDV60801

Issued at 7:32 am EST Tuesday 27 September 2022 (issued every 10 minutes, with the page automatically refreshed every 10 minutes)

About weather observations | Map of weather stations | Latest weather observations for VIC | Other Formats
Station Details ID: 250138 Name: PORTABLE VIC AWS 9 (CFA) Lat: -37.40 Lon: 144.39 Height: 724.0 m

Portable automatic weather stations (PAWS) are operated by other organisations, such as Fire and Emergency Services, and are included here by agreement. Portable stations may be deployed to a location for a short period and their location may be subject to change without notice. Wind observations from these stations are provided from heights of either three (3) or ten (10) metres above ground level (AGL).

Data from the previous 72 hours. | See also: Recent months for locations in Victoria
Date/Time
EST
Temp
°C
App
Temp
°C
Dew
Point
°C
Rel
Hum
%
Delta-T
°C
Wind Press
QNH
hPa
Press
MSL
hPa
Rain since
9am
mm
Dir  Spd
km/h
Gust
km/h
Spd
kts
Gust
kts
27/07:20am 7.6 5.3 7.4 99 0.1 SE 9 13 5 7 1012.6 - 2.8
27/07:10am 7.6 4.9 7.4 99 0.1 SSE 11 15 6 8 1012.5 - 2.8
27/07:00am 7.6 5.3 7.5 99 0.0 SSE 9 11 5 6 1012.4 - 2.8
27/06:50am 7.6 5.3 7.4 99 0.1 S 9 13 5 7 1012.2 - 2.8
27/06:40am 7.5 5.2 7.3 99 0.1 S 9 11 5 6 1012.2 - 2.8
27/06:30am 7.4 5.0 7.2 99 0.1 SSE 9 11 5 6 1012.2 - 2.8
27/06:20am 7.4 5.0 7.2 99 0.1 SSE 9 13 5 7 1012.1 - 2.8
27/06:10am 7.4 5.4 7.2 99 0.1 SSE 7 9 4 5 1012.1 - 2.8
27/06:00am 7.4 5.4 7.2 99 0.1 S 7 9 4 5 1012.0 - 2.8
27/05:50am 7.5 5.5 7.3 99 0.1 S 7 9 4 5 1011.8 - 2.8
27/05:40am 7.4 5.4 7.2 99 0.1 SSE 7 11 4 6 1011.8 - 2.8
27/05:30am 7.5 5.5 7.2 98 0.1 SSE 7 7 4 4 1011.9 - 2.8
27/05:20am 7.4 5.0 7.2 99 0.1 S 9 9 5 5 1011.8 - 2.8
27/05:10am 7.4 5.4 7.2 99 0.1 SSE 7 9 4 5 1011.7 - 2.8
27/05:00am 7.4 5.6 7.1 98 0.1 SSE 6 7 3 4 1011.7 - 2.8
27/04:50am 7.2 5.4 7.0 99 0.1 SSE 6 7 3 4 1011.7 - 2.8
27/04:40am 6.9 5.4 6.7 99 0.1 S 4 6 2 3 1011.8 - 2.8
27/04:30am 6.8 5.6 6.5 98 0.1 S 2 4 1 2 1011.9 - 2.8
27/04:20am 6.7 5.1 6.4 98 0.1 SSE 4 4 2 2 1011.8 - 2.8
27/04:10am 6.7 5.1 6.4 98 0.1 S 4 4 2 2 1011.9 - 2.8
27/04:00am 6.6 4.6 6.3 98 0.1 SSE 6 6 3 3 1011.9 - 2.8
27/03:50am 6.5 4.9 6.2 98 0.1 SSE 4 6 2 3 1011.9 - 2.8
27/03:40am 6.5 5.6 6.2 98 0.1 CALM 0 2 0 1 1012.0 - 2.8
27/03:30am 6.5 5.6 6.1 97 0.2 CALM 0 0 0 0 1012.0 - 2.8
27/03:20am 6.5 5.6 6.1 97 0.2 CALM 0 2 0 1 1012.1 - 2.8
27/03:10am 6.5 4.8 6.1 97 0.2 ESE 4 6 2 3 1012.1 - 2.4
27/03:00am 6.5 4.8 6.1 97 0.2 ESE 4 6 2 3 1012.1 - 1.8
27/02:50am 6.5 5.2 6.0 97 0.2 NNW 2 4 1 2 1012.3 - 1.8
27/02:40am 6.5 4.8 6.0 97 0.2 NNW 4 6 2 3 1012.3 - 1.8
27/02:30am 6.5 4.8 6.0 97 0.2 NW 4 6 2 3 1012.3 - 1.6
27/02:20am 6.5 5.2 6.0 97 0.2 NW 2 4 1 2 1012.4 - 1.4
27/02:10am 6.5 5.2 5.9 96 0.3 WNW 2 4 1 2 1012.5 - 1.2
27/02:00am 6.6 4.9 5.9 95 0.3 NW 4 4 2 2 1012.7 - 1.0
27/01:50am 6.6 5.3 5.9 95 0.3 NW 2 4 1 2 1012.8 - 0.4
27/01:40am 6.7 5.8 6.0 95 0.3 CALM 0 2 0 1 1012.9 - 0.4
27/01:30am 6.6 5.3 5.9 95 0.3 NNW 2 2 1 1 1013.0 - 0.4
27/01:20am 6.7 5.8 6.0 95 0.3 CALM 0 0 0 0 1013.0 - 0.4
27/01:10am 6.7 5.8 5.9 95 0.4 CALM 0 0 0 0 1013.1 - 0.4
27/01:00am 6.7 5.8 5.9 95 0.4 CALM 0 2 0 1 1013.2 - 0.4
27/12:50am 6.7 5.7 5.8 94 0.4 CALM 0 0 0 0 1013.3 - 0.4
27/12:40am 6.7 5.7 5.8 94 0.4 CALM 0 2 0 1 1013.3 - 0.4
27/12:30am 6.7 5.7 5.8 94 0.4 CALM 0 2 0 1 1013.3 - 0.2
27/12:20am 6.7 5.7 5.8 94 0.4 CALM 0 0 0 0 1013.4 - 0.2
27/12:10am 6.6 5.3 5.8 95 0.4 N 2 4 1 2 1013.4 - 0.2
27/12:00am 6.6 4.9 5.8 95 0.4 NNW 4 6 2 3 1013.5 - 0.2
 
Date/Time
EST
Temp
°C
App
Temp
°C
Dew
Point
°C
Rel
Hum
%
Delta-T
°C
Wind Press
QNH
hPa
Press
MSL
hPa
Rain since
9am
mm
Dir  Spd
km/h
Gust
km/h
Spd
kts
Gust
kts
26/11:50pm 6.6 4.9 5.8 95 0.4 NNW 4 4 2 2 1013.5 - 0.2
26/11:40pm 6.5 5.2 5.9 96 0.3 N 2 4 1 2 1013.6 - 0.0
26/11:30pm 6.5 5.6 6.0 97 0.2 CALM 0 2 0 1 1013.7 - 0.0
26/11:20pm 6.5 5.6 6.0 97 0.2 CALM 0 2 0 1 1013.7 - 0.0
26/11:10pm 6.4 5.1 5.9 97 0.2 NNW 2 4 1 2 1013.7 - 0.0
26/11:00pm 6.4 4.7 6.0 97 0.2 NW 4 4 2 2 1013.8 - 0.0
26/10:50pm 6.4 4.7 6.0 97 0.2 NNW 4 4 2 2 1013.9 - 0.0
26/10:40pm 6.4 4.7 6.0 97 0.2 N 4 6 2 3 1013.9 - 0.0
26/10:30pm 6.4 4.7 6.0 97 0.2 NNW 4 6 2 3 1014.0 - 0.0
26/10:20pm 6.4 4.7 5.9 97 0.2 N 4 6 2 3 1014.1 - 0.0
26/10:10pm 6.4 4.7 5.9 97 0.2 N 4 6 2 3 1014.1 - 0.0
26/10:00pm 6.4 4.3 5.9 97 0.2 N 6 7 3 4 1014.2 - 0.0
26/09:50pm 6.4 4.3 5.8 96 0.3 N 6 7 3 4 1014.2 - 0.0
26/09:40pm 6.4 4.3 5.8 96 0.3 N 6 7 3 4 1014.2 - 0.0
26/09:30pm 6.4 4.1 5.8 96 0.3 N 7 7 4 4 1014.1 - 0.0
26/09:20pm 6.4 4.1 5.8 96 0.3 N 7 9 4 5 1014.3 - 0.0
26/09:10pm 6.5 4.2 5.8 95 0.3 N 7 7 4 4 1014.3 - 0.0
26/09:00pm 6.5 4.2 5.8 95 0.3 N 7 9 4 5 1014.3 - 0.0
26/08:50pm 6.5 4.2 5.7 95 0.4 N 7 9 4 5 1014.4 - 0.0
26/08:40pm 6.4 4.1 5.7 95 0.3 N 7 9 4 5 1014.4 - 0.0
26/08:30pm 6.4 3.7 5.8 96 0.3 N 9 11 5 6 1014.4 - 0.0
26/08:20pm 6.5 3.9 6.0 97 0.2 N 9 11 5 6 1014.3 - 0.0
26/08:10pm 6.5 4.3 6.1 97 0.2 N 7 9 4 5 1014.2 - 0.0
26/08:00pm 6.5 3.9 6.2 98 0.1 N 9 11 5 6 1014.1 - 0.0
26/07:50pm 6.6 4.1 6.4 99 0.1 N 9 13 5 7 1014.0 - 0.0
26/07:40pm 6.8 4.3 6.6 99 0.1 N 9 13 5 7 1014.0 - 0.0
26/07:30pm 6.9 4.0 6.7 99 0.1 N 11 15 6 8 1013.9 - 0.0
26/07:20pm 6.9 4.0 6.7 99 0.1 N 11 13 6 7 1013.9 - 0.0
26/07:10pm 6.9 3.7 6.7 99 0.1 N 13 15 7 8 1013.8 - 0.0
26/07:00pm 7.1 3.9 6.8 98 0.1 N 13 15 7 8 1013.8 - 0.0
26/06:50pm 7.2 4.4 7.0 99 0.1 N 11 15 6 8 1013.8 - 0.0
26/06:40pm 7.1 3.9 6.9 99 0.1 N 13 15 7 8 1013.8 - 0.0
26/06:30pm 7.1 3.9 6.9 99 0.1 N 13 15 7 8 1013.8 - 0.0
26/06:20pm 7.2 4.0 7.0 99 0.1 N 13 15 7 8 1013.7 - 0.0
26/06:10pm 7.3 3.4 7.0 98 0.1 N 17 20 9 11 1013.7 - 0.0
26/06:00pm 7.3 3.8 7.0 98 0.1 N 15 17 8 9 1013.6 - 0.0
26/05:50pm 7.4 3.9 7.0 97 0.2 N 15 17 8 9 1013.8 - 0.0
26/05:40pm 7.4 4.2 7.0 97 0.2 N 13 17 7 9 1013.7 - 0.0
26/05:30pm 7.4 3.9 7.0 97 0.2 N 15 17 8 9 1013.7 - 0.0
26/05:20pm 7.4 4.2 7.0 97 0.2 N 13 15 7 8 1013.5 - 0.0
26/05:10pm 7.4 4.3 7.1 98 0.1 N 13 17 7 9 1013.6 - 0.0
26/05:00pm 7.5 4.4 7.1 97 0.2 N 13 17 7 9 1013.4 - 0.0
26/04:50pm 7.4 4.3 7.1 98 0.1 N 13 17 7 9 1013.4 - 0.0
26/04:40pm 7.4 4.2 7.0 97 0.2 N 13 17 7 9 1013.4 - 0.0
26/04:30pm 7.4 4.2 7.0 97 0.2 N 13 15 7 8 1013.5 - 0.0
26/04:20pm 7.5 4.0 7.0 97 0.2 N 15 19 8 10 1013.5 - 0.0
26/04:10pm 7.5 4.7 7.0 97 0.2 N 11 17 6 9 1013.4 - 0.0
26/04:00pm 7.4 3.8 6.9 97 0.2 N 15 19 8 10 1013.5 - 0.0
26/03:50pm 7.5 4.3 6.9 96 0.3 N 13 15 7 8 1013.5 - 0.0
26/03:40pm 7.5 4.3 7.0 97 0.2 N 13 15 7 8 1013.6 - 0.0
26/03:30pm 7.5 3.9 6.9 96 0.3 N 15 19 8 10 1013.6 - 0.0
26/03:20pm 7.5 4.7 6.8 95 0.3 N 11 15 6 8 1013.7 - 0.0
26/03:10pm 7.5 3.9 6.8 95 0.3 N 15 17 8 9 1013.7 - 0.0
26/03:00pm 7.7 4.2 7.0 95 0.3 N 15 17 8 9 1013.7 - 0.0
26/02:50pm 7.8 4.3 7.0 95 0.4 N 15 19 8 10 1013.7 - 0.0
26/02:40pm 7.8 4.3 7.0 95 0.4 N 15 17 8 9 1013.8 - 0.0
26/02:30pm 7.9 4.4 7.0 94 0.4 N 15 19 8 10 1013.9 - 0.0
26/02:20pm 7.8 4.7 7.1 95 0.3 N 13 17 7 9 1013.9 - 0.0
26/02:10pm 7.8 3.9 6.9 94 0.4 N 17 19 9 10 1014.0 - 0.0
26/02:00pm 8.1 4.5 6.8 91 0.6 N 15 20 8 11 1014.2 - 0.0
26/01:50pm 8.0 4.1 7.0 93 0.5 N 17 20 9 11 1014.1 - 0.0
26/01:40pm 7.9 4.0 7.0 94 0.4 N 17 22 9 12 1014.1 - 0.0
26/01:30pm 7.9 4.0 7.1 95 0.4 N 17 19 9 10 1014.3 - 0.0
26/01:20pm 8.0 4.1 7.2 95 0.4 N 17 20 9 11 1014.1 - 0.0
26/01:10pm 8.2 4.0 7.3 94 0.4 N 19 22 10 12 1014.1 - 0.0
26/01:00pm 8.3 3.9 7.3 93 0.5 N 20 24 11 13 1014.2 - 0.0
26/12:50pm 8.4 4.2 7.5 94 0.4 N 19 22 10 12 1014.4 - 0.0
26/12:40pm 8.4 4.5 7.3 93 0.5 N 17 19 9 10 1014.5 - 0.0
26/12:30pm 8.6 4.3 7.2 91 0.7 N 19 22 10 12 1014.7 - 0.0
26/12:20pm 8.6 4.1 7.0 90 0.8 N 20 22 11 12 1014.9 - 0.0
26/12:10pm 8.8 4.9 7.0 88 0.9 N 17 22 9 12 1015.0 - 0.0
26/12:00pm 8.8 4.5 6.9 88 0.9 N 19 20 10 11 1015.0 - 0.0
26/11:50am 8.9 5.0 6.9 87 1.0 N 17 20 9 11 1015.1 - 0.0
26/11:40am 9.0 4.4 6.4 84 1.3 N 20 24 11 13 1015.2 - 0.0
26/11:30am 9.3 4.3 6.3 81 1.4 N 22 26 12 14 1015.3 - 0.0
26/11:20am 9.2 4.2 6.5 83 1.3 N 22 26 12 14 1015.4 - 0.0
26/11:10am 9.2 3.7 6.1 81 1.5 N 24 28 13 15 1015.5 - 0.0
26/11:00am 9.4 4.3 6.1 80 1.6 N 22 26 12 14 1015.5 - 0.0
26/10:50am 9.4 4.8 6.6 83 1.4 N 20 26 11 14 1015.7 - 0.0
26/10:40am 9.5 5.4 6.1 79 1.6 N 17 22 9 12 1015.6 - 0.0
26/10:30am 9.1 4.0 6.0 81 1.5 N 22 24 12 13 1015.7 - 0.0
26/10:20am 9.3 5.2 6.4 82 1.4 N 17 19 9 10 1015.9 - 0.0
26/10:10am 9.0 5.0 6.7 85 1.1 N 17 22 9 12 1016.0 - 0.0
26/10:00am 8.8 4.8 6.8 87 1.0 N 17 20 9 11 1015.9 - 0.0
26/09:50am 8.6 4.7 7.3 91 0.6 N 17 20 9 11 1015.9 - 0.0
26/09:40am 8.3 4.0 7.1 92 0.6 N 19 22 10 12 1016.1 - 0.0
26/09:30am 8.3 4.4 7.3 93 0.5 N 17 19 9 10 1016.2 - 0.0
26/09:20am 8.1 4.2 7.2 94 0.4 N 17 19 9 10 1016.2 - 0.0
26/09:10am 7.8 3.9 7.0 95 0.4 N 17 19 9 10 1016.1 - 0.0
26/09:00am 7.7 3.4 6.8 94 0.4 N 19 20 10 11 1016.1 - 0.4
26/08:50am 7.6 4.0 6.6 93 0.5 N 15 19 8 10 1016.2 - 0.4
26/08:40am 7.5 3.5 6.5 93 0.5 N 17 22 9 12 1016.2 - 0.4
26/08:30am 7.4 3.7 6.5 94 0.4 N 15 15 8 8 1016.4 - 0.4
26/08:20am 7.3 3.6 6.4 94 0.4 N 15 19 8 10 1016.4 - 0.4
26/08:10am 7.3 3.6 6.4 94 0.4 N 15 17 8 9 1016.5 - 0.4
26/08:00am 7.3 4.0 6.4 94 0.4 N 13 15 7 8 1016.5 - 0.4
26/07:50am 7.1 4.2 6.4 95 0.3 N 11 13 6 7 1016.3 - 0.4
26/07:40am 7.0 4.4 6.3 95 0.3 N 9 9 5 5 1016.3 - 0.4
26/07:30am 6.9 4.3 6.1 95 0.4 N 9 11 5 6 1016.3 - 0.4
26/07:20am 6.8 4.2 6.1 95 0.3 N 9 11 5 6 1016.4 - 0.4
26/07:10am 6.8 3.8 6.0 95 0.4 N 11 13 6 7 1016.4 - 0.4
26/07:00am 6.7 4.1 6.0 95 0.3 N 9 11 5 6 1016.3 - 0.4
26/06:50am 6.6 4.0 5.9 95 0.3 N 9 11 5 6 1016.3 - 0.4
26/06:40am 6.6 4.0 5.9 95 0.3 N 9 13 5 7 1016.3 - 0.4
26/06:30am 6.6 3.9 5.8 95 0.4 N 9 9 5 5 1016.2 - 0.2
26/06:20am 6.7 3.7 5.8 94 0.4 N 11 11 6 6 1016.2 - 0.2
26/06:10am 6.7 3.6 5.7 93 0.5 N 11 13 6 7 1016.2 - 0.2
26/06:00am 6.8 3.7 5.7 93 0.5 N 11 13 6 7 1016.2 - 0.2
26/05:50am 6.8 4.1 5.7 93 0.5 NNW 9 11 5 6 1016.2 - 0.0
26/05:40am 6.7 4.4 5.7 93 0.5 N 7 9 4 5 1016.1 - 0.0
26/05:30am 6.8 4.7 5.7 93 0.5 N 6 6 3 3 1016.0 - 0.0
26/05:20am 6.8 5.0 5.6 92 0.6 N 4 6 2 3 1015.9 - 0.0
26/05:10am 6.8 4.7 5.6 92 0.6 N 6 6 3 3 1015.8 - 0.0
26/05:00am 6.8 4.6 5.5 91 0.6 N 6 7 3 4 1015.9 - 0.0
26/04:50am 6.8 4.6 5.4 91 0.6 N 6 7 3 4 1016.0 - 0.0
26/04:40am 6.9 4.7 5.4 90 0.7 N 6 6 3 3 1015.9 - 0.0
26/04:30am 6.9 4.7 5.4 90 0.7 N 6 6 3 3 1015.8 - 0.0
26/04:20am 7.1 4.9 5.4 89 0.8 N 6 7 3 4 1015.8 - 0.0
26/04:10am 7.2 4.8 5.4 88 0.8 N 7 9 4 5 1015.8 - 0.0
26/04:00am 7.2 4.8 5.3 88 0.9 N 7 7 4 4 1015.9 - 0.0
26/03:50am 7.2 4.8 5.2 87 0.9 N 7 9 4 5 1016.0 - 0.0
26/03:40am 7.2 4.8 5.4 88 0.8 NNW 7 7 4 4 1016.0 - 0.0
26/03:30am 7.4 5.0 5.4 87 0.9 NNW 7 9 4 5 1016.0 - 0.0
26/03:20am 7.5 4.7 5.3 86 1.0 NNW 9 9 5 5 1016.1 - 0.0
26/03:10am 7.6 4.8 5.3 85 1.1 NNW 9 9 5 5 1016.3 - 0.0
26/03:00am 7.6 4.9 5.4 86 1.0 NNW 9 9 5 5 1016.4 - 0.0
26/02:50am 7.7 5.3 5.3 85 1.1 NNW 7 9 4 5 1016.4 - 0.0
26/02:40am 7.8 5.6 5.2 84 1.2 NNW 6 6 3 3 1016.5 - 0.0
26/02:30am 7.7 5.5 5.1 83 1.2 NW 6 6 3 3 1016.5 - 0.0
26/02:20am 7.5 5.6 5.1 85 1.1 NNW 4 6 2 3 1016.4 - 0.0
26/02:10am 7.6 6.6 5.8 88 0.8 CALM 0 0 0 0 1016.4 - 0.0
26/02:00am 7.8 6.8 5.8 87 0.9 CALM 0 0 0 0 1016.5 - 0.0
26/01:50am 7.9 6.9 5.4 84 1.2 CALM 0 2 0 1 1016.7 - 0.0
26/01:40am 7.9 6.0 5.1 82 1.3 NNW 4 4 2 2 1017.1 - 0.0
26/01:30am 7.8 6.0 5.2 84 1.2 NNW 4 4 2 2 1017.3 - 0.0
26/01:20am 7.6 6.2 5.4 86 1.0 NW 2 6 1 3 1017.3 - 0.0
26/01:10am 7.6 6.3 5.9 89 0.8 NNW 2 2 1 1 1017.4 - 0.0
26/01:00am 7.7 6.7 5.7 87 0.9 CALM 0 2 0 1 1017.6 - 0.0
26/12:50am 7.8 6.8 5.6 86 1.0 CALM 0 0 0 0 1017.8 - 0.0
26/12:40am 7.9 6.5 5.6 85 1.1 NNW 2 4 1 2 1017.8 - 0.0
26/12:30am 8.0 6.2 5.5 84 1.2 NNW 4 6 2 3 1018.0 - 0.0
26/12:20am 8.1 6.3 5.4 83 1.3 NNW 4 6 2 3 1018.1 - 0.0
26/12:10am 8.1 6.3 5.5 84 1.2 NNW 4 4 2 2 1018.1 - 0.0
26/12:00am 8.2 6.0 5.5 83 1.3 NNW 6 6 3 3 1018.0 - 0.0
 
Date/Time
EST
Temp
°C
App
Temp
°C
Dew
Point
°C
Rel
Hum
%
Delta-T
°C
Wind Press
QNH
hPa
Press
MSL
hPa
Rain since
9am
mm
Dir  Spd
km/h
Gust
km/h
Spd
kts
Gust
kts
25/11:50pm 8.2 6.4 5.4 82 1.3 N 4 6 2 3 1018.0 - 0.0
25/11:40pm 8.3 6.1 5.4 82 1.4 NNW 6 6 3 3 1018.0 - 0.0
25/11:30pm 8.3 6.5 5.3 81 1.4 NNW 4 6 2 3 1017.9 - 0.0
25/11:20pm 8.3 6.4 5.1 80 1.5 NNW 4 6 2 3 1017.8 - 0.0
25/11:10pm 8.2 5.9 5.0 80 1.5 NNW 6 6 3 3 1017.8 - 0.0
25/11:00pm 8.1 5.9 5.1 81 1.4 NNW 6 6 3 3 1017.8 - 0.0
25/10:50pm 8.1 5.3 5.1 81 1.4 NNW 9 9 5 5 1017.7 - 0.0
25/10:40pm 7.9 5.1 5.1 82 1.3 NNW 9 9 5 5 1017.7 - 0.0
25/10:30pm 8.0 5.2 5.3 83 1.3 NNW 9 9 5 5 1017.7 - 0.0
25/10:20pm 8.0 5.5 5.0 81 1.4 NNW 7 9 4 5 1017.8 - 0.0
25/10:10pm 7.9 5.1 5.0 82 1.3 NNW 9 9 5 5 1017.9 - 0.0
25/10:00pm 7.6 5.1 4.9 83 1.2 NNW 7 9 4 5 1017.9 - 0.0
25/09:50pm 7.2 4.9 4.7 84 1.1 NNW 6 9 3 5 1017.8 - 0.0
25/09:40pm 7.0 5.1 4.8 86 1.0 NNE 4 6 2 3 1017.8 - 0.0
25/09:30pm 7.3 5.0 4.9 85 1.1 N 6 6 3 3 1017.8 - 0.0
25/09:20pm 7.4 5.1 4.9 84 1.2 N 6 7 3 4 1017.8 - 0.0
25/09:10pm 7.5 5.0 5.0 84 1.2 NNW 7 9 4 5 1018.0 - 0.0
25/09:00pm 7.5 5.2 5.0 84 1.2 NNW 6 6 3 3 1017.9 - 0.0
25/08:50pm 7.3 5.0 4.9 85 1.1 NNW 6 7 3 4 1017.7 - 0.0
25/08:40pm 7.3 4.8 4.8 84 1.1 N 7 7 4 4 1017.6 - 0.0
25/08:30pm 7.4 5.1 4.9 84 1.2 N 6 7 3 4 1017.7 - 0.0
25/08:20pm 7.5 5.0 5.0 84 1.2 N 7 7 4 4 1017.5 - 0.0
25/08:10pm 7.6 5.1 4.9 83 1.2 N 7 9 4 5 1017.7 - 0.0
25/08:00pm 7.7 5.2 4.9 82 1.3 NNW 7 9 4 5 1017.6 - 0.0
25/07:50pm 7.4 5.1 4.9 84 1.2 NNW 6 7 3 4 1017.6 - 0.0
25/07:40pm 7.8 5.3 5.0 82 1.3 N 7 7 4 4 1017.4 - 0.0
25/07:30pm 8.0 5.6 5.1 82 1.3 N 7 9 4 5 1017.2 - 0.0
25/07:20pm 8.2 5.8 5.1 81 1.4 N 7 7 4 4 1017.1 - 0.0
25/07:10pm 8.5 6.3 5.2 80 1.5 N 6 7 3 4 1017.1 - 0.0
25/07:00pm 9.0 6.6 5.1 76 1.8 N 7 7 4 4 1017.0 - 0.0
25/06:50pm 9.1 6.6 5.0 75 1.9 N 7 9 4 5 1017.0 - 0.0
25/06:40pm 9.3 6.8 5.0 74 2.0 N 7 9 4 5 1016.9 - 0.0
25/06:30pm 9.6 7.1 4.8 72 2.2 N 7 9 4 5 1016.9 - 0.0
25/06:20pm 9.9 7.4 4.7 70 2.4 NNW 7 9 4 5 1016.8 - 0.0
25/06:10pm 10.4 8.1 4.7 68 2.7 NNW 6 6 3 3 1016.7 - 0.0
25/06:00pm 11.0 8.7 4.8 65 2.9 NNW 6 11 3 6 1016.6 - 0.0
25/05:50pm 11.3 8.4 4.6 63 3.2 NNW 9 11 5 6 1016.4 - 0.0
25/05:40pm 11.6 8.3 4.7 62 3.3 NNW 11 13 6 7 1016.4 - 0.0
25/05:30pm 11.9 8.3 5.0 62 3.3 N 13 15 7 8 1016.2 - 0.0
25/05:20pm 12.1 8.9 5.1 62 3.4 NNW 11 13 6 7 1016.1 - 0.0
25/05:10pm 12.1 8.4 4.7 60 3.5 N 13 13 7 7 1016.0 - 0.0
25/05:00pm 12.6 9.4 5.3 61 3.5 N 11 17 6 9 1015.9 - 0.0
25/04:50pm 12.7 9.5 5.2 60 3.6 N 11 13 6 7 1015.9 - 0.0
25/04:40pm 12.8 9.5 4.5 57 4.0 NNW 11 13 6 7 1015.9 - 0.0
25/04:30pm 12.8 9.5 4.8 58 3.8 NNW 11 13 6 7 1015.9 - 0.0
25/04:20pm 12.7 8.9 4.1 56 4.1 NNW 13 15 7 8 1015.9 - 0.0
25/04:10pm 13.1 10.1 4.1 54 4.3 NNW 9 15 5 8 1015.9 - 0.0
25/04:00pm 12.5 8.7 4.1 56 4.0 WNW 13 15 7 8 1015.9 - 0.0
25/03:50pm 12.6 9.1 3.4 53 4.3 WNW 11 15 6 8 1015.9 - 0.0
25/03:40pm 12.2 8.4 4.0 57 3.8 NW 13 17 7 9 1016.0 - 0.0
25/03:30pm 12.3 8.7 5.1 61 3.5 NNW 13 17 7 9 1016.1 - 0.0
25/03:20pm 12.4 9.2 5.2 61 3.5 NNW 11 17 6 9 1016.2 - 0.0
25/03:10pm 12.5 8.8 4.6 58 3.8 NNW 13 15 7 8 1016.1 - 0.0
25/03:00pm 12.8 8.8 4.9 58 3.8 NNW 15 20 8 11 1016.2 - 0.0
25/02:50pm 12.5 8.8 4.5 58 3.8 NW 13 17 7 9 1016.4 - 0.0
25/02:40pm 12.8 9.0 3.8 54 4.2 NNW 13 17 7 9 1016.5 - 0.0
25/02:30pm 12.4 9.1 4.6 59 3.7 NNW 11 15 6 8 1016.5 - 0.0
25/02:20pm 12.6 8.9 4.3 57 3.9 N 13 17 7 9 1016.3 - 0.0
25/02:10pm 12.6 9.2 5.8 63 3.3 WNW 13 19 7 10 1016.3 - 0.0
25/02:00pm 12.5 9.3 4.9 60 3.6 NW 11 17 6 9 1016.6 - 0.0
25/01:50pm 12.2 8.5 4.4 59 3.7 WNW 13 17 7 9 1016.7 - 0.0
25/01:40pm 12.1 8.3 3.9 57 3.8 NW 13 15 7 8 1016.6 - 0.0
25/01:30pm 12.0 7.4 3.6 56 3.9 WNW 17 20 9 11 1016.7 - 0.0
25/01:20pm 11.7 7.9 4.1 59 3.6 NW 13 19 7 10 1016.8 - 0.0
25/01:10pm 11.4 8.0 4.2 61 3.4 NW 11 17 6 9 1016.7 - 0.0
25/01:00pm 11.3 7.1 3.8 60 3.5 WNW 15 19 8 10 1016.9 - 0.0
25/12:50pm 11.9 7.4 4.2 59 3.6 WNW 17 20 9 11 1016.8 - 0.0
25/12:40pm 11.8 7.2 3.6 57 3.8 WNW 17 19 9 10 1016.8 - 0.0
25/12:30pm 11.4 7.3 4.3 61 3.3 WNW 15 19 8 10 1016.6 - 0.0
25/12:20pm 11.7 7.8 3.5 57 3.8 NW 13 17 7 9 1016.5 - 0.0
25/12:10pm 11.3 7.5 3.7 59 3.5 NW 13 19 7 10 1016.4 - 0.0
25/12:00pm 10.7 6.9 3.8 62 3.2 NNW 13 17 7 9 1016.2 - 0.0
25/11:50am 10.4 6.2 3.6 63 3.1 NW 15 17 8 9 1016.4 - 0.0
25/11:40am 10.6 6.0 3.7 62 3.2 NW 17 19 9 10 1016.6 - 0.0
25/11:30am 10.5 6.3 4.0 64 3.0 NW 15 19 8 10 1016.6 - 0.0
25/11:20am 10.2 5.4 2.8 60 3.3 NW 17 20 9 11 1016.9 - 0.0
25/11:10am 10.5 6.3 3.9 63 3.0 NW 15 20 8 11 1016.8 - 0.0
25/11:00am 9.9 5.5 2.8 61 3.2 NNW 15 19 8 10 1016.9 - 0.0
25/10:50am 9.6 5.3 3.4 65 2.8 NW 15 19 8 10 1017.0 - 0.0
25/10:40am 9.5 4.4 3.0 64 2.9 NW 19 22 10 12 1017.1 - 0.0
25/10:30am 9.5 5.1 2.9 63 3.0 NW 15 19 8 10 1017.0 - 0.0
25/10:20am 9.3 5.0 3.1 65 2.8 WNW 15 19 8 10 1017.1 - 0.0
25/10:10am 9.2 4.8 2.9 64 2.8 NNW 15 19 8 10 1017.1 - 0.0
25/10:00am 8.8 4.4 2.5 64 2.8 NW 15 19 8 10 1017.0 - 0.0
25/09:50am 8.7 4.7 2.8 66 2.6 NNW 13 17 7 9 1017.0 - 0.0
25/09:40am 8.3 4.0 3.0 69 2.4 NNW 15 19 8 10 1017.0 - 0.0
25/09:30am 8.2 4.2 2.9 69 2.3 NNW 13 15 7 8 1016.8 - 0.0
25/09:20am 8.2 5.0 2.8 69 2.4 NW 9 13 5 7 1016.9 - 0.0
25/09:10am 7.6 4.1 3.3 74 1.9 N 11 13 6 7 1016.8 - 0.0
25/09:00am 7.4 4.1 2.3 70 2.2 NNW 9 13 5 7 1016.7 - 0.2
25/08:50am 7.1 3.4 2.6 73 2.0 NNW 11 15 6 8 1016.6 - 0.2
25/08:40am 7.2 3.5 2.3 71 2.1 N 11 13 6 7 1016.6 - 0.2
25/08:30am 6.8 2.6 1.8 70 2.1 NNW 13 15 7 8 1016.6 - 0.2
25/08:20am 6.7 2.9 2.0 72 2.0 NNW 11 13 6 7 1016.4 - 0.2
25/08:10am 6.6 3.2 1.9 72 2.0 NW 9 11 5 6 1016.5 - 0.2
25/08:00am 6.4 3.5 2.5 76 1.7 NW 7 9 4 5 1016.4 - 0.2
25/07:50am 6.1 3.1 1.8 74 1.8 NW 7 9 4 5 1016.5 - 0.2
25/07:40am 5.8 2.8 1.9 76 1.6 WNW 7 9 4 5 1016.3 - 0.2
25/07:30am 5.8 3.4 1.9 76 1.6 NW 4 6 2 3 1016.3 - 0.2
25/07:20am 5.2 3.1 1.8 79 1.4 NNW 2 4 1 2 1016.2 - 0.2
25/07:10am 4.3 2.1 1.2 80 1.3 WNW 2 2 1 1 1016.2 - 0.2
25/07:00am 3.8 1.5 0.6 79 1.3 WNW 2 4 1 2 1016.2 - 0.2
25/06:50am 3.2 0.5 0.4 82 1.1 W 4 6 2 3 1016.1 - 0.2
25/06:40am 2.6 -0.5 0.2 84 0.9 W 6 6 3 3 1016.0 - 0.0
25/06:30am 2.1 -0.7 -0.2 85 0.9 W 4 6 2 3 1015.9 - 0.0
25/06:20am 1.3 -1.1 -0.3 89 0.6 W 2 4 1 2 1015.7 - 0.0
25/06:10am 1.4 -1.5 -0.8 85 0.8 W 4 4 2 2 1015.5 - 0.0
25/06:00am 1.2 -1.6 -0.4 89 0.6 W 4 4 2 2 1015.5 - 0.0
25/05:50am 0.7 -1.7 -0.2 94 0.3 W 2 4 1 2 1015.4 - 0.0
25/05:40am 0.6 -1.4 -0.1 95 0.3 CALM 0 2 0 1 1015.3 - 0.0
25/05:30am 0.5 -1.5 -0.2 95 0.3 CALM 0 0 0 0 1015.2 - 0.0
25/05:20am 0.5 -1.5 -0.2 95 0.3 CALM 0 2 0 1 1015.2 - 0.0
25/05:10am 0.1 -2.0 -0.6 95 0.3 CALM 0 2 0 1 1015.3 - 0.0
25/05:00am 0.2 -2.2 -0.6 94 0.3 SW 2 2 1 1 1015.2 - 0.0
25/04:50am 0.3 -1.8 -0.5 94 0.3 CALM 0 0 0 0 1015.3 - 0.0
25/04:40am 0.6 -2.2 -0.6 92 0.4 W 4 4 2 2 1015.2 - 0.0
25/04:30am 0.7 -2.1 -0.1 94 0.3 W 4 6 2 3 1015.2 - 0.0
25/04:20am 0.6 -2.1 0.1 96 0.2 W 4 4 2 2 1015.2 - 0.0
25/04:10am 0.8 -1.9 0.4 97 0.2 SSW 4 4 2 2 1015.2 - 0.0
25/04:00am 0.3 -2.5 -0.1 97 0.2 SSW 4 6 2 3 1015.1 - 0.0
25/03:50am -0.9 -3.8 -1.3 97 0.1 SSW 4 6 2 3 1015.2 - 0.0
25/03:40am 0.0 -2.8 -0.3 98 0.1 SSW 4 4 2 2 1015.1 - 0.0
25/03:30am -0.1 -2.9 -0.5 97 0.1 SSW 4 6 2 3 1015.1 - 0.0
25/03:20am 0.0 -2.8 -0.3 98 0.1 S 4 6 2 3 1015.0 - 0.0
25/03:10am 0.1 -2.7 -0.2 98 0.1 SSW 4 4 2 2 1015.2 - 0.0
25/03:00am 0.3 -2.8 0.0 98 0.1 S 6 6 3 3 1015.2 - 0.0
25/02:50am 0.2 -3.0 -0.2 97 0.2 S 6 6 3 3 1015.2 - 0.0
25/02:40am 0.7 -2.4 0.4 98 0.1 S 6 6 3 3 1015.3 - 0.0
25/02:30am 0.7 -2.0 0.3 97 0.2 S 4 6 2 3 1015.3 - 0.0
25/02:20am 1.3 -1.3 1.0 98 0.1 SSW 4 6 2 3 1015.5 - 0.0
25/02:10am 0.9 -2.1 0.6 98 0.1 SSW 6 6 3 3 1015.6 - 0.0
25/02:00am 0.8 -2.5 0.4 97 0.2 SSW 7 7 4 4 1015.7 - 0.0
25/01:50am 1.4 -1.8 1.0 97 0.2 SSW 7 7 4 4 1015.8 - 0.0
25/01:40am 1.6 -1.3 1.2 97 0.2 SSW 6 7 3 4 1015.8 - 0.0
25/01:30am 1.1 -1.9 0.7 97 0.2 SSW 6 6 3 3 1015.9 - 0.0
25/01:20am 0.5 -2.6 0.0 96 0.2 SSW 6 6 3 3 1015.9 - 0.0
25/01:10am 0.9 -2.1 0.5 97 0.2 S 6 6 3 3 1016.1 - 0.0
25/01:00am 0.6 -2.5 0.2 97 0.2 SSW 6 7 3 4 1016.3 - 0.0
25/12:50am 0.9 -2.4 0.4 96 0.2 SSW 7 7 4 4 1016.2 - 0.0
25/12:40am 1.8 -1.3 1.4 97 0.2 SSW 7 7 4 4 1016.3 - 0.0
25/12:30am 1.8 -1.1 1.3 96 0.2 S 6 6 3 3 1016.3 - 0.0
25/12:20am 1.8 -1.1 1.3 96 0.2 S 6 6 3 3 1016.2 - 0.0
25/12:10am 1.6 -1.4 1.0 96 0.2 S 6 6 3 3 1016.3 - 0.0
25/12:00am 2.2 -0.7 1.6 96 0.2 S 6 6 3 3 1016.2 - 0.0
 
Date/Time
EST
Temp
°C
App
Temp
°C
Dew
Point
°C
Rel
Hum
%
Delta-T
°C
Wind Press
QNH
hPa
Press
MSL
hPa
Rain since
9am
mm
Dir  Spd
km/h
Gust
km/h
Spd
kts
Gust
kts
24/11:50pm 2.5 -0.3 1.9 96 0.2 S 6 6 3 3 1016.3 - 0.0
24/11:40pm 2.3 -0.6 1.7 96 0.2 S 6 7 3 4 1016.3 - 0.0
24/11:30pm 2.5 -0.3 1.9 96 0.2 S 6 7 3 4 1016.3 - 0.0
24/11:20pm 2.7 -0.1 2.0 95 0.3 SSE 6 6 3 3 1016.3 - 0.0
24/11:10pm 2.7 -0.1 2.0 95 0.3 SSE 6 6 3 3 1016.3 - 0.0
24/11:00pm 2.8 -0.1 1.7 92 0.4 SSE 6 7 3 4 1016.4 - 0.0
24/10:50pm 3.5 0.7 2.3 92 0.5 SSE 6 7 3 4 1016.5 - 0.0
24/10:40pm 4.2 1.5 2.9 91 0.6 SSE 6 7 3 4 1016.6 - 0.0
24/10:30pm 4.7 2.5 3.1 89 0.7 S 4 4 2 2 1016.6 - 0.0
24/10:20pm 4.9 3.1 3.4 90 0.7 S 2 4 1 2 1016.6 - 0.0
24/10:10pm 5.0 3.2 3.3 89 0.7 SSE 2 6 1 3 1016.6 - 0.0
24/10:00pm 5.0 3.6 3.3 89 0.7 CALM 0 4 0 2 1016.7 - 0.0
24/09:50pm 5.0 3.2 3.3 89 0.7 S 2 6 1 3 1016.7 - 0.0
24/09:40pm 5.0 2.8 3.4 89 0.7 SE 4 6 2 3 1016.6 - 0.0
24/09:30pm 5.1 2.9 3.4 89 0.7 SSE 4 6 2 3 1016.5 - 0.0
24/09:20pm 5.1 2.5 3.3 88 0.8 SE 6 6 3 3 1016.6 - 0.0
24/09:10pm 5.1 2.3 3.4 89 0.7 SSE 7 7 4 4 1016.6 - 0.0
24/09:00pm 5.2 2.4 3.3 87 0.8 SE 7 7 4 4 1016.6 - 0.0
24/08:50pm 5.2 2.6 3.2 87 0.9 SE 6 9 3 5 1016.6 - 0.0
24/08:40pm 5.3 2.5 3.3 87 0.9 SSE 7 9 4 5 1016.5 - 0.0
24/08:30pm 5.3 2.5 3.1 86 1.0 S 7 9 4 5 1016.6 - 0.0
24/08:20pm 5.4 2.2 3.1 85 1.0 SSE 9 11 5 6 1016.7 - 0.0
24/08:10pm 5.5 2.7 3.4 86 0.9 S 7 7 4 4 1016.6 - 0.0
24/08:00pm 5.5 2.0 3.4 86 0.9 SSE 11 13 6 7 1016.6 - 0.0
24/07:50pm 5.6 2.1 3.5 86 0.9 SE 11 13 6 7 1016.4 - 0.0
24/07:40pm 5.6 2.9 3.9 89 0.8 SE 7 9 4 5 1016.3 - 0.0
24/07:30pm 5.6 3.1 3.7 87 0.8 SE 6 7 3 4 1016.1 - 0.0
24/07:20pm 5.5 2.8 3.7 88 0.8 SE 7 7 4 4 1016.1 - 0.0
24/07:10pm 5.3 3.5 3.6 89 0.7 S 2 6 1 3 1016.1 - 0.0
24/07:00pm 5.1 3.3 3.4 89 0.7 SW 2 4 1 2 1016.0 - 0.0
24/06:50pm 4.9 3.0 3.1 88 0.8 SSW 2 4 1 2 1016.0 - 0.0
24/06:40pm 5.2 2.9 2.9 85 1.0 S 4 4 2 2 1015.9 - 0.0
24/06:30pm 5.5 2.9 3.2 85 1.0 S 6 6 3 3 1015.8 - 0.0
24/06:20pm 6.0 3.2 3.3 83 1.2 S 7 7 4 4 1015.7 - 0.0
24/06:10pm 6.4 3.3 3.5 82 1.3 S 9 11 5 6 1015.7 - 0.0
24/06:00pm 6.7 3.6 3.4 79 1.5 S 9 11 5 6 1015.7 - 0.0
24/05:50pm 6.6 3.1 3.3 79 1.5 S 11 13 6 7 1015.7 - 0.0
24/05:40pm 6.6 2.3 3.4 80 1.4 S 15 17 8 9 1015.7 - 0.0
24/05:30pm 6.9 2.6 3.4 78 1.5 S 15 17 8 9 1015.6 - 0.0
24/05:20pm 7.2 3.6 3.2 76 1.8 SSE 11 13 6 7 1015.6 - 0.0
24/05:10pm 7.6 4.0 3.0 72 2.0 S 11 15 6 8 1015.5 - 0.0
24/05:00pm 7.7 3.5 3.6 75 1.8 SSE 15 20 8 11 1015.5 - 0.0
24/04:50pm 8.2 3.6 3.8 74 2.0 SSE 17 22 9 12 1015.5 - 0.0
24/04:40pm 9.0 4.6 2.9 65 2.7 SW 15 17 8 9 1015.4 - 0.0
24/04:30pm 9.4 4.7 1.0 56 3.6 SSW 15 20 8 11 1015.5 - 0.0
24/04:20pm 8.7 4.1 1.4 60 3.1 S 15 19 8 10 1015.5 - 0.0
24/04:10pm 8.4 3.9 2.2 65 2.7 S 15 19 8 10 1015.4 - 0.0
24/04:00pm 8.5 3.2 2.0 63 2.8 S 19 24 10 13 1015.3 - 0.0
24/03:50pm 8.6 3.2 1.5 61 3.1 S 19 20 10 11 1015.3 - 0.0
24/03:40pm 8.9 3.6 1.9 61 3.0 S 19 22 10 12 1015.2 - 0.0
24/03:30pm 9.2 4.6 1.8 60 3.2 SSE 15 19 8 10 1015.2 - 0.0
24/03:20pm 9.1 4.2 2.2 62 3.0 S 17 22 9 12 1015.2 - 0.0
24/03:10pm 9.0 4.0 1.5 59 3.2 SSW 17 20 9 11 1015.3 - 0.0
24/03:00pm 9.3 3.9 2.4 62 3.0 S 20 24 11 13 1015.4 - 0.0
24/02:50pm 9.0 3.5 1.8 60 3.1 S 20 22 11 12 1015.3 - 0.0
24/02:40pm 9.6 4.0 0.1 51 4.0 S 19 24 10 13 1015.2 - 0.0
24/02:30pm 10.0 4.7 1.7 56 3.6 S 19 26 10 14 1015.3 - 0.0
24/02:20pm 9.7 4.2 0.5 52 3.9 S 19 26 10 14 1015.3 - 0.0
24/02:10pm 9.5 3.8 0.7 54 3.7 SSW 20 26 11 14 1015.3 - 0.0
24/02:00pm 9.1 3.6 1.8 60 3.2 SSW 20 28 11 15 1015.2 - 0.0
24/01:50pm 9.7 4.5 2.2 59 3.3 S 19 26 10 14 1015.4 - 0.0
24/01:40pm 8.8 3.5 1.6 60 3.1 S 19 22 10 12 1015.4 - 0.0
24/01:30pm 8.9 3.3 1.2 58 3.3 S 20 24 11 13 1015.5 - 0.0
24/01:20pm 9.0 3.2 2.1 62 3.0 S 22 26 12 14 1015.6 - 0.0
24/01:10pm 10.1 5.0 3.3 62 3.1 S 19 24 10 13 1015.6 - 0.0
24/01:00pm 9.7 4.4 1.6 57 3.5 S 19 22 10 12 1015.7 - 0.0
24/12:50pm 9.3 3.2 0.7 55 3.7 S 22 28 12 15 1015.8 - 0.0
24/12:40pm 9.7 4.5 2.4 60 3.2 SSW 19 24 10 13 1015.8 - 0.0
24/12:30pm 9.3 3.8 2.0 60 3.2 S 20 26 11 14 1015.8 - 0.0
24/12:20pm 9.3 3.9 1.4 58 3.4 SSW 19 26 10 14 1015.8 - 0.0
24/12:10pm 9.6 4.7 1.8 58 3.4 S 17 22 9 12 1016.0 - 0.0
24/12:00pm 9.2 3.6 1.5 58 3.3 SSW 20 24 11 13 1016.0 - 0.0
24/11:50am 9.1 3.8 1.8 60 3.2 S 19 24 10 13 1016.0 - 0.0
24/11:40am 8.7 2.6 0.2 55 3.5 S 22 24 12 13 1016.1 - 0.0
24/11:30am 8.6 2.3 1.4 60 3.1 SSW 24 28 13 15 1016.0 - 0.0
24/11:20am 8.4 3.0 2.2 65 2.7 S 20 26 11 14 1016.2 - 0.0
24/11:10am 8.3 2.7 1.5 62 2.9 SSW 20 26 11 14 1016.2 - 0.0
24/11:00am 8.3 2.9 2.3 66 2.6 SSE 20 24 11 13 1016.2 - 0.0
24/10:50am 7.7 2.1 1.4 64 2.7 S 20 28 11 15 1016.3 - 0.0
24/10:40am 7.9 2.6 2.8 70 2.2 S 20 24 11 13 1016.4 - 0.0
24/10:30am 6.9 1.0 1.6 69 2.2 S 22 28 12 15 1016.3 - 0.0
24/10:20am 7.3 1.3 1.2 65 2.6 S 22 26 12 14 1016.2 - 0.0
24/10:10am 6.7 0.8 1.7 70 2.1 S 22 28 12 15 1016.3 - 0.0
24/10:00am 6.9 0.5 1.0 66 2.5 S 24 32 13 17 1016.2 - 0.0
24/09:50am 6.9 0.2 1.2 67 2.4 S 26 30 14 16 1016.0 - 0.0
24/09:40am 7.0 0.4 2.0 70 2.1 SSE 26 33 14 18 1016.0 - 0.0
24/09:30am 6.5 -1.0 1.5 70 2.1 SSE 30 35 16 19 1015.9 - 0.0
24/09:20am 6.3 -1.2 1.1 69 2.2 SSE 30 37 16 20 1016.1 - 0.0
24/09:10am 6.4 -1.6 1.5 71 2.1 SSE 33 39 18 21 1015.9 - 0.0
24/09:00am 6.2 -1.2 1.6 72 1.9 S 30 35 16 19 1015.9 - 2.0
24/08:50am 6.0 -1.9 1.2 71 2.0 SSE 32 35 17 19 1015.7 - 2.0
24/08:40am 5.7 -1.7 2.0 77 1.6 S 30 35 16 19 1015.7 - 2.0
24/08:30am 5.7 -0.9 1.8 76 1.6 S 26 35 14 19 1015.6 - 2.0
24/08:20am 5.4 -1.6 1.9 78 1.5 S 28 32 15 17 1015.8 - 2.0
24/08:10am 5.3 -1.3 2.0 79 1.4 S 26 30 14 16 1015.8 - 2.0
24/08:00am 5.1 -1.0 2.5 83 1.1 S 24 32 13 17 1015.6 - 2.0
24/07:50am 4.8 -1.0 2.4 84 1.0 S 22 28 12 15 1015.6 - 2.0
24/07:40am 4.6 -1.5 2.5 86 0.9 S 24 30 13 16 1015.6 - 2.0

Other formats

Comma delimited format used in spreadsheet applications
http://www.bom.gov.au/fwo/IDV60801/IDV60801.99821.axf

JavaScript Object Notation format (JSON) in row-major order
http://www.bom.gov.au/fwo/IDV60801/IDV60801.99821.json

Data quality

Most of these data are generated automatically and are frequently updated. Quality checks on data are not normally performed. It is possible for incorrect values to appear. Refer to information at About Latest Weather Observations and please check the disclaimer before using these data.